aviador You're here:

CWEU Decoded Metar

EUREKA in NU, CANADA
Report Time2018-05-23 06:00:00
UTC Time2018-05-23 07:10:55
Flight Rules Old
Wind340° at 15 kt
W.Rank340° ranks 20
Current wind is above 340° avg. (8.7)
Visibility9999 m
Phenomena:Fog
Clouds:Few 010 Hf
Few 040 Hf
Few 220 Hf
Expected CloudBase > 800 ft AGL from Temp-Dew spread
CeilingNone
Temp-8°C (ISA -23)
Dew Point-10°C (86% RH)
AAT-16.5°C
QNH1013 hPa
Density Alt-2,782 ft
Elevation33 ft
Report Wrong Elevation
Raw Report
CWEU 230600Z 34015KT 15SM FEW010 FEW040 FEW220 M08/M10 A2990 RMK
ST1SC1CI1 SC TR CI TR FEW TPG HILLS S-SW FG BNK NW SLP128=

Extra information for CWEU:More info

Metar Taf Metar & Taf Last 4 Metars F.Rules Stats Wind Profile Meteogram Temp Stats Airport Information Weather charts Add Link Nearby VenuesMetar ALERT Operation Metar Decoded Social comments